createdAt,value
2017-09-09T00:01:29.696Z,96.70
2017-09-09T00:03:56.061Z,96.70
2017-09-09T00:06:22.759Z,96.70
2017-09-09T00:08:49.150Z,96.70
2017-09-09T00:11:15.473Z,96.70
2017-09-09T00:13:41.851Z,96.70
2017-09-09T00:16:09.003Z,96.60
2017-09-09T00:18:36.097Z,96.80
2017-09-09T00:21:03.289Z,96.70
2017-09-09T00:23:29.666Z,96.70
2017-09-09T00:25:56.013Z,96.80
2017-09-09T00:28:22.359Z,96.80
2017-09-09T00:30:48.742Z,96.90
2017-09-09T00:33:15.456Z,96.80
2017-09-09T00:35:42.594Z,97.00
2017-09-09T00:38:09.011Z,96.90
2017-09-09T00:40:35.408Z,96.90
2017-09-09T00:43:01.797Z,96.90
2017-09-09T00:45:28.896Z,97.20
2017-09-09T00:47:55.319Z,97.00
2017-09-09T00:50:21.689Z,96.90
2017-09-09T00:52:48.119Z,96.80
2017-09-09T00:55:14.500Z,96.80
2017-09-09T00:57:40.921Z,96.80
2017-09-09T01:00:07.332Z,96.80
2017-09-09T01:02:34.453Z,96.80
2017-09-09T01:05:00.813Z,96.80
2017-09-09T01:07:28.246Z,96.70
2017-09-09T01:09:54.678Z,96.60
2017-09-09T01:12:21.061Z,96.60
2017-09-09T01:14:47.453Z,96.60
2017-09-09T01:17:14.563Z,96.80
2017-09-09T01:19:40.947Z,96.70
2017-09-09T01:22:07.323Z,96.70
2017-09-09T01:24:34.025Z,96.60
2017-09-09T01:27:00.413Z,96.60
2017-09-09T01:29:26.818Z,96.80
2017-09-09T01:31:53.230Z,96.80
2017-09-09T01:34:19.602Z,96.80
2017-09-09T01:36:46.723Z,96.80
2017-09-09T01:39:13.094Z,96.80
2017-09-09T01:41:40.187Z,96.90
2017-09-09T01:44:06.587Z,96.80
2017-09-09T01:46:32.973Z,96.90
2017-09-09T01:48:59.475Z,96.90
2017-09-09T01:51:26.163Z,96.80
2017-09-09T01:53:53.278Z,96.90
2017-09-09T01:56:19.640Z,96.90
2017-09-09T01:58:46.747Z,96.90
2017-09-09T02:01:13.140Z,96.90
2017-09-09T02:03:39.500Z,96.90
2017-09-09T02:06:05.872Z,96.90
2017-09-09T02:08:32.227Z,96.80
2017-09-09T02:10:58.601Z,96.80
2017-09-09T02:13:25.279Z,96.80
2017-09-09T02:15:52.387Z,96.80
2017-09-09T02:18:18.760Z,96.70
2017-09-09T02:20:45.870Z,96.70
2017-09-09T02:23:12.248Z,96.70
2017-09-09T02:25:38.632Z,96.90
2017-09-09T02:28:04.968Z,97.20
2017-09-09T02:30:31.343Z,97.30
2017-09-09T02:32:57.739Z,97.60
2017-09-09T02:35:25.201Z,97.40
2017-09-09T02:37:52.330Z,97.10
2017-09-09T02:40:18.736Z,97.10
2017-09-09T02:42:45.117Z,97.30
2017-09-09T02:45:12.322Z,97.30
2017-09-09T02:54:24.275Z,96.70
2017-09-09T02:56:51.798Z,96.80
2017-09-09T02:59:18.153Z,96.80
2017-09-09T03:01:44.543Z,96.80
2017-09-09T03:04:10.948Z,96.80
2017-09-09T03:06:38.074Z,97.00
2017-09-09T03:09:04.486Z,96.90
2017-09-09T03:11:30.878Z,97.40
2017-09-09T03:13:57.235Z,97.90
2017-09-09T03:16:23.591Z,98.00
2017-09-09T03:18:50.325Z,97.30
2017-09-09T03:21:16.685Z,96.80
2017-09-09T03:23:43.053Z,96.30
2017-09-09T03:26:09.416Z,95.80
2017-09-09T03:28:36.534Z,95.30
2017-09-09T03:31:02.906Z,95.40
2017-09-09T03:33:29.263Z,95.90
2017-09-09T03:35:55.610Z,95.80
2017-09-09T03:38:21.993Z,95.80
2017-09-09T03:40:49.437Z,95.00
2017-09-09T03:43:15.791Z,95.20
2017-09-09T03:45:42.930Z,94.50
2017-09-09T03:48:10.124Z,94.20
2017-09-09T03:50:36.489Z,94.00
2017-09-09T03:53:02.893Z,94.10
2017-09-09T03:55:29.255Z,93.70
2017-09-09T03:57:55.641Z,93.40
2017-09-09T04:00:22.002Z,92.80
2017-09-09T04:02:48.758Z,93.10
2017-09-09T04:05:15.184Z,92.90
2017-09-09T04:07:41.523Z,92.60
2017-09-09T04:10:07.939Z,93.20
2017-09-09T04:12:35.082Z,93.10
2017-09-09T04:15:01.444Z,93.10
2017-09-09T04:17:28.551Z,92.40
2017-09-09T04:19:54.933Z,92.40
2017-09-09T04:22:22.032Z,92.20
2017-09-09T04:24:48.687Z,92.10
2017-09-09T04:27:15.028Z,92.10
2017-09-09T04:29:42.133Z,92.10
2017-09-09T04:32:08.509Z,92.10
2017-09-09T04:34:35.583Z,92.30
2017-09-09T04:37:01.962Z,92.30
2017-09-09T04:39:28.349Z,92.40
2017-09-09T04:41:54.760Z,92.40
2017-09-09T04:44:21.141Z,92.60
2017-09-09T04:46:47.500Z,92.70
2017-09-09T04:49:14.651Z,93.50
2017-09-09T04:51:41.378Z,93.20
2017-09-09T04:54:07.782Z,93.70
2017-09-09T04:56:34.170Z,94.00
2017-09-09T04:59:00.529Z,94.20
2017-09-09T05:01:26.897Z,94.40
2017-09-09T05:03:53.321Z,94.50
2017-09-09T05:06:20.409Z,95.20
2017-09-09T05:08:46.849Z,94.90
2017-09-09T05:11:13.236Z,95.00
2017-09-09T05:13:39.653Z,95.10
2017-09-09T05:16:06.091Z,95.10
2017-09-09T05:18:32.453Z,95.40
2017-09-09T05:20:59.563Z,95.60
2017-09-09T05:23:25.928Z,95.60
2017-09-09T05:25:52.668Z,95.90
2017-09-09T05:28:19.051Z,96.20
2017-09-09T05:30:45.470Z,96.50
2017-09-09T05:33:11.873Z,96.70
2017-09-09T05:35:38.261Z,96.80
2017-09-09T05:38:04.696Z,96.80
2017-09-09T05:40:31.825Z,97.10
2017-09-09T05:42:58.965Z,97.40
2017-09-09T05:45:25.344Z,97.30
2017-09-09T05:47:52.885Z,97.20
2017-09-09T05:50:19.255Z,97.20
2017-09-09T05:52:45.664Z,97.00
2017-09-09T05:55:12.051Z,96.80
2017-09-09T05:57:38.437Z,96.70
2017-09-09T06:00:04.847Z,96.60
2017-09-09T06:02:31.216Z,96.80
2017-09-09T06:04:57.616Z,97.00
2017-09-09T06:07:23.998Z,97.10
2017-09-09T06:09:50.366Z,97.10
2017-09-09T06:12:17.462Z,96.90
2017-09-09T06:14:44.153Z,96.90
2017-09-09T06:17:11.250Z,96.80
2017-09-09T06:19:37.615Z,96.80
2017-09-09T06:22:04.739Z,97.10
2017-09-09T06:24:31.084Z,96.80
2017-09-09T06:26:57.444Z,96.90
2017-09-09T06:29:23.824Z,97.00
2017-09-09T06:31:50.237Z,96.90
2017-09-09T06:34:16.649Z,96.90
2017-09-09T06:36:43.358Z,97.00
2017-09-09T06:39:09.709Z,97.20
2017-09-09T06:41:36.057Z,97.20
2017-09-09T06:44:02.486Z,97.00
2017-09-09T06:46:28.890Z,96.60
2017-09-09T06:48:55.354Z,96.20
2017-09-09T06:51:21.741Z,96.10
2017-09-09T06:53:48.164Z,96.00
2017-09-09T06:56:14.509Z,95.60
2017-09-09T06:58:41.919Z,95.70
2017-09-09T07:01:08.318Z,95.70
2017-09-09T07:03:34.671Z,95.80
2017-09-09T07:06:01.082Z,96.00
2017-09-09T07:08:27.490Z,96.20
2017-09-09T07:10:53.911Z,96.20
2017-09-09T07:13:21.040Z,95.90
2017-09-09T07:15:48.169Z,95.90
2017-09-09T07:18:14.547Z,95.80
2017-09-09T07:20:40.949Z,95.90
2017-09-09T07:23:07.324Z,95.90
2017-09-09T07:25:34.032Z,96.00
2017-09-09T07:28:01.166Z,95.80
2017-09-09T07:30:28.321Z,95.50
2017-09-09T07:32:55.460Z,95.40
2017-09-09T07:35:22.596Z,94.80
2017-09-09T07:37:48.947Z,94.80
2017-09-09T07:40:16.069Z,94.50
2017-09-09T07:42:42.483Z,94.40
2017-09-09T07:45:09.626Z,94.40
2017-09-09T07:47:36.038Z,94.40
2017-09-09T07:50:02.432Z,93.90
2017-09-09T07:52:29.880Z,93.10
2017-09-09T07:54:56.603Z,93.20
2017-09-09T07:57:22.976Z,92.40
2017-09-09T07:59:49.376Z,91.90
2017-09-09T08:02:16.498Z,91.60
2017-09-09T08:04:42.871Z,91.60
2017-09-09T08:07:09.963Z,91.40
2017-09-09T08:09:36.469Z,91.40
2017-09-09T08:12:02.838Z,91.30
2017-09-09T08:14:29.959Z,90.80
2017-09-09T08:16:56.347Z,90.70
2017-09-09T08:19:23.462Z,90.10
2017-09-09T08:21:49.850Z,90.20
2017-09-09T08:24:16.542Z,89.40
2017-09-09T08:26:42.931Z,88.00
2017-09-09T08:29:09.258Z,86.80
2017-09-09T08:31:35.642Z,84.60
2017-09-09T08:34:02.814Z,84.70
2017-09-09T08:36:29.936Z,84.30
2017-09-09T08:38:57.041Z,83.00
2017-09-09T08:41:23.434Z,83.00
2017-09-09T08:43:50.555Z,83.10
2017-09-09T08:46:16.943Z,83.10
2017-09-09T08:48:43.357Z,82.30
2017-09-09T08:51:09.713Z,81.70
2017-09-09T08:53:36.094Z,81.90
2017-09-09T08:56:03.187Z,81.60
2017-09-09T08:58:29.565Z,81.50
2017-09-09T09:00:56.656Z,79.90
2017-09-09T09:03:23.326Z,79.80
2017-09-09T09:05:49.679Z,78.40
2017-09-09T09:08:16.778Z,77.60
2017-09-09T09:10:43.203Z,77.60
2017-09-09T09:13:16.530Z,76.80
2017-09-09T09:15:42.923Z,76.60
2017-09-09T09:18:09.262Z,77.00
2017-09-09T09:20:35.628Z,76.20
2017-09-09T09:25:35.027Z,76.90
2017-09-09T09:28:01.415Z,76.40
2017-09-09T09:30:28.219Z,75.60
2017-09-09T09:32:54.600Z,76.30
2017-09-09T09:35:20.956Z,76.70
2017-09-09T09:37:47.345Z,77.30
2017-09-09T09:40:13.773Z,77.20
2017-09-09T09:42:40.160Z,76.00
2017-09-09T09:45:06.528Z,75.70
2017-09-09T09:47:33.019Z,75.00
2017-09-09T09:49:59.390Z,76.30
2017-09-09T09:52:25.816Z,76.00
2017-09-09T09:54:52.181Z,76.00
2017-09-09T09:57:18.862Z,75.40
2017-09-09T09:59:46.016Z,78.20
2017-09-09T10:02:13.156Z,78.10
2017-09-09T10:04:39.546Z,78.00
2017-09-09T10:07:05.929Z,78.30
2017-09-09T10:09:33.379Z,75.20
2017-09-09T10:12:00.503Z,72.50
2017-09-09T10:14:26.901Z,72.30
2017-09-09T10:16:53.275Z,72.60
2017-09-09T10:19:19.632Z,73.30
2017-09-09T10:21:46.034Z,74.50
2017-09-09T10:24:16.633Z,75.40
2017-09-09T10:26:43.063Z,74.90
2017-09-09T10:29:09.450Z,74.50
2017-09-09T10:31:36.591Z,71.00
2017-09-09T10:34:03.724Z,69.80
2017-09-09T10:36:30.141Z,69.80
2017-09-09T10:38:57.291Z,70.10
2017-09-09T10:41:24.040Z,70.10
2017-09-09T10:43:51.175Z,69.70
2017-09-09T10:46:17.585Z,69.10
2017-09-09T10:48:44.016Z,70.00
2017-09-09T10:51:10.419Z,68.70
2017-09-09T10:53:36.836Z,69.00
2017-09-09T10:56:03.936Z,66.60
2017-09-09T10:58:30.302Z,66.60
2017-09-09T11:00:56.708Z,66.80
2017-09-09T11:03:23.869Z,69.00
2017-09-09T11:05:51.009Z,70.20
2017-09-09T11:08:17.361Z,69.90
2017-09-09T11:10:43.755Z,70.70
2017-09-09T11:13:10.109Z,71.20
2017-09-09T11:15:37.229Z,72.60
2017-09-09T11:18:03.604Z,72.40
2017-09-09T11:20:30.321Z,72.60
2017-09-09T11:22:56.709Z,72.50
2017-09-09T11:25:23.069Z,72.70
2017-09-09T11:27:49.438Z,73.80
2017-09-09T11:30:15.802Z,74.50
2017-09-09T11:32:42.204Z,71.90
2017-09-09T11:35:08.574Z,73.20
2017-09-09T11:37:34.980Z,72.60
2017-09-09T11:40:01.340Z,73.30
2017-09-09T11:42:27.811Z,73.50
2017-09-09T11:44:54.175Z,72.50
2017-09-09T11:47:20.858Z,73.30
2017-09-09T11:49:47.953Z,73.90
2017-09-09T11:52:14.319Z,74.00
2017-09-09T11:54:40.690Z,74.00
2017-09-09T11:57:07.058Z,73.60
2017-09-09T11:59:33.426Z,73.00
2017-09-09T12:02:00.592Z,72.40
2017-09-09T12:04:26.982Z,72.40
2017-09-09T12:06:53.326Z,72.30
2017-09-09T12:09:20.652Z,72.10
2017-09-09T12:11:47.023Z,71.80
2017-09-09T12:14:14.459Z,69.20
2017-09-09T12:16:40.790Z,69.10
2017-09-09T12:19:07.147Z,68.90
2017-09-09T12:21:33.546Z,69.50
2017-09-09T12:23:59.920Z,69.20
2017-09-09T12:26:26.273Z,69.50
2017-09-09T12:28:52.656Z,68.70
2017-09-09T12:31:19.790Z,66.90
2017-09-09T12:33:46.890Z,66.80
2017-09-09T12:36:13.258Z,66.10
2017-09-09T12:38:39.621Z,67.00
2017-09-09T12:41:06.329Z,65.80
2017-09-09T12:43:32.692Z,63.70
2017-09-09T12:45:59.794Z,61.80
2017-09-09T12:48:27.009Z,58.80
2017-09-09T12:50:53.361Z,58.80
2017-09-09T12:53:19.749Z,58.90
2017-09-09T12:55:46.115Z,60.20
2017-09-09T12:58:12.474Z,60.20
2017-09-09T13:00:38.839Z,60.60
2017-09-09T13:03:06.282Z,60.80
2017-09-09T13:05:32.661Z,61.50
2017-09-09T13:07:59.008Z,61.70
2017-09-09T13:10:25.454Z,60.80
2017-09-09T13:12:51.807Z,60.90
2017-09-09T13:15:18.989Z,61.70
2017-09-09T13:17:45.342Z,61.70
2017-09-09T13:20:11.723Z,59.70
2017-09-09T13:22:38.069Z,60.10
2017-09-09T13:25:04.450Z,60.70
2017-09-09T13:27:30.797Z,61.30
2017-09-09T13:29:57.510Z,62.00
2017-09-09T13:32:23.868Z,61.50
2017-09-09T13:34:50.237Z,60.60
2017-09-09T13:37:16.638Z,61.30
2017-09-09T13:39:43.034Z,60.30
2017-09-09T13:42:10.168Z,59.40
2017-09-09T13:44:36.555Z,59.40
2017-09-09T13:47:03.231Z,58.60
2017-09-09T13:49:29.705Z,59.40
2017-09-09T13:51:56.779Z,61.10
2017-09-09T13:54:24.197Z,61.10
2017-09-09T13:56:51.303Z,62.60
2017-09-09T13:59:17.686Z,62.60
2017-09-09T14:01:44.776Z,63.20
2017-09-09T14:04:11.431Z,63.10
2017-09-09T14:06:37.859Z,62.60
2017-09-09T14:09:04.213Z,62.50
2017-09-09T14:11:30.578Z,62.30
2017-09-09T14:13:56.920Z,62.70
2017-09-09T14:16:23.305Z,61.60
2017-09-09T14:18:50.406Z,60.70
2017-09-09T14:21:16.820Z,60.70
2017-09-09T14:23:43.226Z,60.70
2017-09-09T14:26:09.644Z,61.50
2017-09-09T14:28:36.016Z,61.30
2017-09-09T14:31:02.693Z,59.20
2017-09-09T14:33:29.037Z,59.70
2017-09-09T14:35:56.151Z,61.30
2017-09-09T14:38:22.490Z,61.20
2017-09-09T14:40:48.834Z,61.50
2017-09-09T14:43:16.031Z,61.70
2017-09-09T14:45:42.419Z,61.00
2017-09-09T14:48:09.592Z,61.60
2017-09-09T14:50:35.954Z,61.60
2017-09-09T14:53:02.358Z,62.20
2017-09-09T14:55:28.785Z,62.20
2017-09-09T14:57:55.505Z,62.70
2017-09-09T15:00:21.859Z,63.50
2017-09-09T15:02:48.234Z,64.20
2017-09-09T15:05:14.592Z,64.50
2017-09-09T15:07:41.677Z,64.50
2017-09-09T15:10:08.040Z,64.50
2017-09-09T15:12:34.409Z,65.10
2017-09-09T15:15:00.840Z,65.30
2017-09-09T15:17:27.961Z,65.70
2017-09-09T15:19:54.341Z,65.70
2017-09-09T15:22:20.692Z,65.20
2017-09-09T15:24:47.363Z,65.70
2017-09-09T15:27:14.487Z,67.00
2017-09-09T15:29:40.851Z,66.60
2017-09-09T15:32:07.997Z,67.40
2017-09-09T15:34:35.132Z,67.80
2017-09-09T15:37:02.262Z,68.70
2017-09-09T15:39:28.613Z,68.20
2017-09-09T15:41:55.021Z,68.10
2017-09-09T15:44:21.392Z,68.10
2017-09-09T15:46:47.823Z,68.40
2017-09-09T15:49:14.974Z,69.10
2017-09-09T15:51:41.599Z,69.10
2017-09-09T15:54:08.721Z,68.80
2017-09-09T15:56:35.087Z,68.80
2017-09-09T15:59:01.440Z,68.60
2017-09-09T16:01:27.783Z,68.90
2017-09-09T16:03:54.196Z,69.00
2017-09-09T16:06:20.564Z,69.40
2017-09-09T16:08:47.332Z,69.70
2017-09-09T16:11:14.458Z,70.10
2017-09-09T16:13:40.856Z,69.90
2017-09-09T16:16:22.164Z,70.20
2017-09-09T16:18:48.539Z,70.30
2017-09-09T16:21:14.909Z,70.50
2017-09-09T16:23:41.293Z,70.70
2017-09-09T16:26:08.432Z,71.50
2017-09-09T16:28:35.530Z,71.60
2017-09-09T16:31:01.889Z,71.50
2017-09-09T16:33:28.225Z,71.70
2017-09-09T16:35:54.600Z,72.50
2017-09-09T16:38:20.964Z,71.60
2017-09-09T16:40:47.346Z,72.10
2017-09-09T16:43:13.719Z,71.90
2017-09-09T16:45:40.145Z,72.40
2017-09-09T16:48:06.515Z,72.90
2017-09-09T16:50:33.604Z,73.40
2017-09-09T16:53:00.391Z,73.30
2017-09-09T16:55:26.746Z,73.60
2017-09-09T16:57:53.109Z,73.80
2017-09-09T17:00:19.497Z,73.70
2017-09-09T17:02:45.850Z,74.20
2017-09-09T17:05:12.298Z,74.40
2017-09-09T17:07:38.729Z,74.60
2017-09-09T17:10:05.179Z,74.80
2017-09-09T17:12:31.604Z,75.20
2017-09-09T17:14:58.362Z,75.30
2017-09-09T17:17:24.769Z,75.30
2017-09-09T17:19:51.145Z,75.60
2017-09-09T17:22:18.241Z,76.20
2017-09-09T17:24:44.611Z,76.10
2017-09-09T17:27:11.757Z,76.80
2017-09-09T17:29:38.123Z,76.70
2017-09-09T17:32:04.509Z,76.70
2017-09-09T17:34:30.895Z,77.60
2017-09-09T17:36:57.295Z,77.90
2017-09-09T17:39:23.652Z,77.40
2017-09-09T17:41:50.352Z,77.60
2017-09-09T17:44:16.742Z,77.80
2017-09-09T17:46:43.117Z,78.60
2017-09-09T17:49:09.571Z,78.10
2017-09-09T17:51:35.952Z,78.50
2017-09-09T17:54:02.351Z,78.90
2017-09-09T17:56:28.696Z,79.00
2017-09-09T17:58:55.111Z,79.20
2017-09-09T18:01:21.454Z,79.50
2017-09-09T18:03:47.826Z,79.70
2017-09-09T18:06:14.953Z,80.30
2017-09-09T18:08:41.371Z,80.30
2017-09-09T18:11:07.765Z,80.40
2017-09-09T18:13:34.406Z,80.90
2017-09-09T18:16:00.845Z,81.20
2017-09-09T18:18:27.222Z,81.30
2017-09-09T18:20:54.383Z,82.00
2017-09-09T18:23:21.503Z,82.60
2017-09-09T18:25:47.864Z,82.50
2017-09-09T18:28:14.288Z,83.00
2017-09-09T18:30:41.415Z,84.00
2017-09-09T18:33:08.568Z,84.50
2017-09-09T18:35:36.031Z,85.00
2017-09-09T18:38:03.171Z,85.30
2017-09-09T18:40:30.353Z,85.20
2017-09-09T18:42:56.742Z,85.20
2017-09-09T18:45:23.902Z,85.20
2017-09-09T18:47:51.089Z,85.30
2017-09-09T18:50:17.518Z,85.20
2017-09-09T18:52:43.910Z,85.50
2017-09-09T18:55:11.047Z,85.30
2017-09-09T18:57:37.458Z,85.30
2017-09-09T19:00:03.952Z,85.50
2017-09-09T19:02:30.758Z,85.70
2017-09-09T19:04:57.183Z,86.00
2017-09-09T19:07:23.619Z,86.00
2017-09-09T19:09:50.023Z,86.80
2017-09-09T19:12:16.384Z,87.40
2017-09-09T19:14:42.819Z,87.60
2017-09-09T19:17:09.945Z,88.10
2017-09-09T19:19:36.374Z,88.10
2017-09-09T19:22:02.787Z,88.50
2017-09-09T19:24:29.433Z,89.00
2017-09-09T19:26:55.813Z,89.10
2017-09-09T19:29:22.280Z,89.40
2017-09-09T19:31:48.702Z,89.70
2017-09-09T19:34:15.073Z,90.00
2017-09-09T19:36:41.464Z,90.10
2017-09-09T19:39:07.865Z,90.30
2017-09-09T19:41:34.303Z,90.50
2017-09-09T19:44:00.656Z,90.60
2017-09-09T19:46:27.454Z,90.80
2017-09-09T19:48:53.932Z,90.90
2017-09-09T19:51:20.327Z,90.90
2017-09-09T19:53:46.750Z,91.00
2017-09-09T19:56:13.853Z,91.20
2017-09-09T19:58:40.212Z,91.20
2017-09-09T20:01:06.575Z,91.30
2017-09-09T20:03:32.994Z,91.40
2017-09-09T20:05:59.370Z,91.40
2017-09-09T20:08:25.801Z,91.60
2017-09-09T20:10:52.219Z,91.80
2017-09-09T20:13:18.628Z,91.80
2017-09-09T20:15:45.043Z,91.90
2017-09-09T20:18:11.471Z,92.00
2017-09-09T20:20:37.927Z,92.10
2017-09-09T20:23:04.352Z,92.10
2017-09-09T20:25:30.789Z,92.10
2017-09-09T20:27:57.223Z,92.00
2017-09-09T20:30:23.571Z,91.90
2017-09-09T20:32:49.972Z,92.00
2017-09-09T20:35:16.670Z,92.00
2017-09-09T20:37:43.037Z,91.80
2017-09-09T20:40:09.409Z,91.60
2017-09-09T20:42:35.786Z,91.60
2017-09-09T20:45:02.193Z,91.80
2017-09-09T20:47:29.397Z,91.80
2017-09-09T20:49:55.774Z,91.80
2017-09-09T20:52:22.980Z,92.00
2017-09-09T20:54:49.448Z,92.00
2017-09-09T20:57:15.858Z,92.10
2017-09-09T20:59:42.269Z,92.10
2017-09-09T21:02:08.680Z,92.30
2017-09-09T21:04:35.111Z,92.40
2017-09-09T21:07:01.821Z,92.60
2017-09-09T21:09:28.190Z,92.70
2017-09-09T21:11:54.636Z,93.00
2017-09-09T21:14:21.050Z,93.10
2017-09-09T21:16:47.407Z,93.30
2017-09-09T21:19:13.831Z,93.50
2017-09-09T21:21:40.177Z,93.60
2017-09-09T21:24:06.827Z,93.90
2017-09-09T21:26:33.989Z,94.10
2017-09-09T21:29:01.144Z,94.20
2017-09-09T21:31:27.505Z,94.20
2017-09-09T21:33:53.873Z,94.40
2017-09-09T21:36:20.289Z,94.50
2017-09-09T21:38:46.682Z,94.40
2017-09-09T21:41:13.113Z,94.60
2017-09-09T21:43:39.519Z,94.60
2017-09-09T21:46:06.254Z,94.50
2017-09-09T21:48:32.749Z,94.50
2017-09-09T21:50:59.101Z,94.60
2017-09-09T21:53:25.521Z,94.80
2017-09-09T21:55:51.855Z,95.00
2017-09-09T21:58:18.987Z,95.20
2017-09-09T22:00:45.361Z,95.20
2017-09-09T22:03:12.922Z,95.60
2017-09-09T22:05:39.352Z,95.60
2017-09-09T22:08:06.470Z,95.80
2017-09-09T22:10:32.859Z,95.80
2017-09-09T22:12:59.251Z,95.90
2017-09-09T22:15:26.420Z,96.20
2017-09-09T22:17:52.807Z,96.10
2017-09-09T22:20:19.185Z,96.30
2017-09-09T22:22:45.529Z,96.40
2017-09-09T22:25:11.937Z,96.40
2017-09-09T22:27:38.302Z,96.30
2017-09-09T22:30:05.082Z,96.30
2017-09-09T22:32:32.200Z,96.70
2017-09-09T22:34:58.569Z,96.60
2017-09-09T22:37:24.972Z,96.70
2017-09-09T22:39:51.337Z,96.70
2017-09-09T22:42:17.737Z,96.90
2017-09-09T22:44:44.082Z,96.90
2017-09-09T22:47:11.236Z,96.90
2017-09-09T22:49:37.689Z,96.80
2017-09-09T22:52:04.064Z,96.90
2017-09-09T22:54:30.482Z,96.80
2017-09-09T22:56:57.162Z,97.00
2017-09-09T22:59:24.297Z,96.90
2017-09-09T23:01:50.688Z,96.90
2017-09-09T23:04:17.069Z,96.90
2017-09-09T23:06:44.186Z,97.10
2017-09-09T23:09:10.583Z,97.10
2017-09-09T23:11:36.995Z,97.20
2017-09-09T23:14:03.393Z,97.30
2017-09-09T23:16:29.759Z,97.30
2017-09-09T23:18:56.114Z,97.40
2017-09-09T23:21:22.468Z,97.40
2017-09-09T23:23:48.832Z,97.50
2017-09-09T23:26:15.956Z,97.40
2017-09-09T23:28:42.306Z,97.40
2017-09-09T23:31:09.418Z,97.70
2017-09-09T23:33:35.815Z,97.70
2017-09-09T23:36:02.513Z,97.70
2017-09-09T23:38:29.602Z,97.80
2017-09-09T23:40:55.960Z,97.70
2017-09-09T23:43:22.346Z,97.80
2017-09-09T23:45:48.700Z,97.90
2017-09-09T23:48:15.134Z,98.00
2017-09-09T23:50:41.492Z,98.00
2017-09-09T23:53:07.834Z,98.10
2017-09-09T23:55:34.193Z,98.20
2017-09-09T23:58:00.902Z,98.20
